Time;durP1;ratioP1;P1;durP2;ratioP2;P2;SDS_P1;SDS_P2;PMS_P1;PMS_P2;Temp;Humidity;BMP_temperature;BMP_pressure;BME280_temperature;BME280_humidity;BME280_pressure;Samples;Min_cycle;Max_cycle;Signal;HPM_P1;HPM_P2
2021/09/28 00:00:24;;;;;;;1.55;0.70;;;;;;;13.41;100.00;99400.75;4984974;28;20535;-67
2021/09/28 00:02:50;;;;;;;1.83;0.80;;;;;;;13.38;100.00;99409.34;4993818;28;20396;-68
2021/09/28 00:05:15;;;;;;;2.05;0.65;;;;;;;13.28;100.00;99385.31;4994161;28;20053;-68
2021/09/28 00:07:40;;;;;;;1.48;0.80;;;;;;;13.37;100.00;99404.97;4984389;28;20034;-67
2021/09/28 00:10:06;;;;;;;3.22;0.60;;;;;;;13.28;100.00;99406.19;4975547;28;20030;-68
2021/09/28 00:12:31;;;;;;;1.13;0.73;;;;;;;13.40;100.00;99411.84;4978346;28;20094;-68
2021/09/28 00:14:56;;;;;;;0.30;0.30;;;;;;;13.36;100.00;99415.00;4986862;28;20120;-67
2021/09/28 00:17:22;;;;;;;2.50;0.60;;;;;;;13.41;100.00;99405.38;4993609;28;20033;-67
2021/09/28 00:19:47;;;;;;;1.75;0.50;;;;;;;13.41;100.00;99408.09;4978580;28;20582;-67
2021/09/28 00:22:12;;;;;;;1.35;0.50;;;;;;;13.38;100.00;99417.50;4973555;28;20027;-68
2021/09/28 00:24:38;;;;;;;1.55;0.50;;;;;;;13.40;100.00;99414.56;4983364;28;20105;-70
2021/09/28 00:27:03;;;;;;;2.75;0.68;;;;;;;13.41;100.00;99421.69;4975958;28;20027;-70
2021/09/28 00:29:29;;;;;;;2.55;0.70;;;;;;;13.25;100.00;99382.09;4986731;28;20041;-68
2021/09/28 00:31:54;;;;;;;1.98;0.70;;;;;;;13.53;100.00;99412.72;4993645;28;20026;-69
2021/09/28 00:34:20;;;;;;;1.20;0.77;;;;;;;13.54;100.00;99416.25;4993099;28;20503;-68
2021/09/28 00:36:45;;;;;;;1.58;0.70;;;;;;;13.54;100.00;99411.66;4993517;28;20049;-68
2021/09/28 00:39:10;;;;;;;1.23;0.70;;;;;;;13.59;100.00;99419.19;4985364;28;20394;-68
2021/09/28 00:41:36;;;;;;;4.65;0.75;;;;;;;13.58;100.00;99412.09;4989371;28;20456;-68
2021/09/28 00:44:01;;;;;;;4.60;1.10;;;;;;;13.67;100.00;99429.84;4977885;28;20035;-68
2021/09/28 00:46:26;;;;;;;1.52;1.00;;;;;;;13.50;100.00;99413.13;4974814;28;20061;-68
2021/09/28 00:48:52;;;;;;;3.75;1.38;;;;;;;13.62;100.00;99432.38;4974964;28;20031;-68
2021/09/28 00:51:18;;;;;;;1.73;1.17;;;;;;;13.69;100.00;99427.78;4974350;28;20450;-71
2021/09/28 00:53:45;;;;;;;4.45;1.27;;;;;;;13.55;100.00;99421.50;4980998;28;20034;-68
2021/09/28 00:56:14;;;;;;;3.28;1.65;;;;;;;13.58;100.00;99431.94;4975052;28;20037;-68
2021/09/28 00:58:40;;;;;;;;;;;;;;;13.56;100.00;99430.47;4993589;28;20027;-67
2021/09/28 01:01:06;;;;;;;1.52;1.10;;;;;;;13.40;100.00;99425.44;5015604;28;19913;-69
2021/09/28 01:03:32;;;;;;;4.47;1.77;;;;;;;13.48;100.00;99444.28;5015591;28;20033;-69
2021/09/28 01:05:59;;;;;;;3.25;1.80;;;;;;;13.46;100.00;99449.06;5014176;28;20015;-71
2021/09/28 01:08:25;;;;;;;3.38;1.80;;;;;;;13.49;100.00;99456.81;5008270;28;20061;-68
2021/09/28 01:10:50;;;;;;;4.55;2.00;;;;;;;13.39;100.00;99451.81;4995339;28;20045;-67
2021/09/28 01:13:16;;;;;;;3.80;1.60;;;;;;;13.40;100.00;99447.19;5008969;28;20022;-68
2021/09/28 01:16:09;;;;;;;6.38;2.33;;;;;;;13.37;100.00;99432.97;5014996;28;20037;-68
2021/09/28 01:18:36;;;;;;;2.95;1.95;;;;;;;13.38;100.00;99442.78;5004170;28;20034;-72
2021/09/28 01:21:04;;;;;;;4.25;2.15;;;;;;;13.40;100.00;99449.91;4995447;28;20031;-68
2021/09/28 01:23:29;;;;;;;3.15;2.05;;;;;;;13.34;100.00;99444.25;5008495;28;20057;-68
2021/09/28 01:25:54;;;;;;;5.57;2.33;;;;;;;13.24;100.00;99456.53;5026204;28;20030;-68
2021/09/28 01:28:20;;;;;;;5.90;1.85;;;;;;;13.28;100.00;99465.97;5016527;28;20030;-67
2021/09/28 01:30:46;;;;;;;4.72;2.00;;;;;;;13.26;100.00;99458.03;5012370;28;20029;-69
2021/09/28 01:33:15;;;;;;;2.90;1.65;;;;;;;13.24;100.00;99460.09;5008899;28;20050;-68
2021/09/28 01:35:40;;;;;;;3.97;1.48;;;;;;;13.25;100.00;99456.31;5016906;28;20026;-67
2021/09/28 01:38:06;;;;;;;1.30;1.00;;;;;;;13.13;100.00;99449.81;5015539;28;20068;-68
2021/09/28 01:40:33;;;;;;;2.55;1.10;;;;;;;13.01;100.00;99462.28;5016876;28;20046;-69
2021/09/28 01:43:10;;;;;;;3.95;1.20;;;;;;;13.08;100.00;99466.72;5006686;28;20099;-69
2021/09/28 01:45:36;;;;;;;2.50;1.20;;;;;;;13.08;100.00;99466.72;5015338;28;20054;-71
2021/09/28 01:48:01;;;;;;;9.68;1.60;;;;;;;12.95;100.00;99458.50;5016083;28;20018;-68
2021/09/28 01:50:26;;;;;;;3.33;1.38;;;;;;;13.07;100.00;99475.06;5006156;28;20018;-67
2021/09/28 01:52:52;;;;;;;1.73;1.05;;;;;;;13.01;100.00;99486.75;4990421;28;20030;-68
2021/09/28 01:55:17;;;;;;;8.15;1.40;;;;;;;12.90;100.00;99469.97;4999809;28;20049;-69
2021/09/28 01:57:42;;;;;;;3.03;1.48;;;;;;;13.00;100.00;99485.09;4999424;28;20117;-69
2021/09/28 02:00:09;;;;;;;4.40;1.48;;;;;;;13.05;100.00;99496.19;5004970;28;20108;-68
2021/09/28 02:02:34;;;;;;;3.13;1.48;;;;;;;12.98;100.00;99498.03;4997043;28;20034;-68
2021/09/28 02:04:59;;;;;;;5.00;1.48;;;;;;;13.03;100.00;99509.94;4990158;28;20037;-68
2021/09/28 02:07:24;;;;;;;3.42;1.30;;;;;;;13.01;100.00;99492.19;4996147;28;20026;-68
2021/09/28 02:09:50;;;;;;;6.13;1.52;;;;;;;12.87;100.00;99483.97;4997933;28;20105;-68
2021/09/28 02:12:15;;;;;;;6.45;1.17;;;;;;;12.91;100.00;99489.81;4998719;28;20065;-68
2021/09/28 02:14:40;;;;;;;7.53;1.42;;;;;;;12.82;99.98;99497.31;4996512;28;20062;-69
2021/09/28 02:17:07;;;;;;;5.97;1.08;;;;;;;12.72;99.71;99497.66;4998490;28;20030;-68
2021/09/28 02:19:32;;;;;;;3.08;1.10;;;;;;;12.75;99.38;99503.75;4997752;28;20061;-68
2021/09/28 02:21:57;;;;;;;6.55;1.15;;;;;;;12.61;99.89;99487.38;4995523;28;20472;-69
2021/09/28 02:24:23;;;;;;;4.15;1.05;;;;;;;12.82;100.00;99499.19;4996275;28;20032;-68
2021/09/28 02:26:48;;;;;;;6.10;1.25;;;;;;;12.83;100.00;99503.56;4978537;28;20106;-68
2021/09/28 02:29:13;;;;;;;3.47;1.10;;;;;;;12.78;100.00;99493.31;4983203;28;20024;-68
2021/09/28 02:31:39;;;;;;;3.75;0.90;;;;;;;12.88;100.00;99499.22;4990952;28;20076;-70
2021/09/28 02:34:10;;;;;;;2.28;0.90;;;;;;;12.83;99.90;99490.00;4992671;28;20033;-68
2021/09/28 02:36:37;;;;;;;2.83;0.70;;;;;;;12.92;99.89;99494.22;5004860;28;20037;-68
2021/09/28 02:39:04;;;;;;;4.07;0.70;;;;;;;12.86;100.00;99478.72;4995814;28;20022;-67
2021/09/28 02:41:30;;;;;;;2.90;0.63;;;;;;;12.94;98.10;99484.84;4996458;28;20026;-68
2021/09/28 02:43:56;;;;;;;3.95;0.70;;;;;;;12.96;98.24;99489.22;4992146;28;20026;-70
2021/09/28 02:46:21;;;;;;;6.28;1.10;;;;;;;12.91;99.01;99487.94;4981295;28;20029;-69
2021/09/28 02:48:46;;;;;;;4.03;0.88;;;;;;;12.96;98.62;99491.94;4996982;28;20121;-67
2021/09/28 02:51:12;;;;;;;1.92;0.60;;;;;;;12.78;97.63;99470.75;4996755;28;20030;-68
2021/09/28 02:53:37;;;;;;;6.25;1.00;;;;;;;12.93;97.62;99496.72;4997483;28;20494;-67
2021/09/28 02:56:02;;;;;;;7.10;0.93;;;;;;;12.70;98.74;99459.00;4992857;28;20042;-68
2021/09/28 02:58:28;;;;;;;3.90;0.90;;;;;;;12.85;99.05;99496.06;4980852;28;20030;-68
2021/09/28 03:00:53;;;;;;;4.18;0.80;;;;;;;12.85;98.93;99499.63;4989097;28;20084;-67
2021/09/28 03:03:18;;;;;;;6.25;0.80;;;;;;;12.68;99.07;99479.25;4997465;28;20030;-68
2021/09/28 03:05:44;;;;;;;4.05;0.82;;;;;;;12.74;99.19;99502.06;4998002;28;20388;-68
2021/09/28 03:08:09;;;;;;;5.07;0.98;;;;;;;12.68;99.66;99490.97;4996638;28;20026;-67
2021/09/28 03:10:36;;;;;;;4.18;0.90;;;;;;;12.60;100.00;99491.16;4992939;28;20460;-68
2021/09/28 03:13:01;;;;;;;2.03;0.80;;;;;;;12.62;100.00;99491.75;4996524;28;20065;-67
2021/09/28 03:15:27;;;;;;;3.28;0.75;;;;;;;12.43;100.00;99476.19;4982663;28;20054;-68
2021/09/28 03:17:53;;;;;;;4.10;0.90;;;;;;;12.46;100.00;99484.78;4990507;28;20088;-68
2021/09/28 03:20:18;;;;;;;5.10;0.90;;;;;;;12.59;100.00;99494.88;4997253;28;20109;-68
2021/09/28 03:22:43;;;;;;;2.92;0.90;;;;;;;12.58;100.00;99497.81;4996604;28;20472;-68
2021/09/28 03:25:09;;;;;;;4.65;0.98;;;;;;;12.55;100.00;99498.19;4994073;28;20030;-68
2021/09/28 03:27:34;;;;;;;4.28;0.90;;;;;;;12.47;100.00;99500.03;4995429;28;20038;-68
2021/09/28 03:29:59;;;;;;;5.15;0.90;;;;;;;12.55;100.00;99509.03;4996422;28;20076;-67
2021/09/28 03:32:25;;;;;;;5.22;1.10;;;;;;;12.48;100.00;99500.88;4997892;28;20030;-68
2021/09/28 03:34:50;;;;;;;4.47;1.10;;;;;;;12.49;100.00;99514.22;4994870;28;20062;-74
2021/09/28 03:37:16;;;;;;;3.00;0.77;;;;;;;12.62;100.00;99509.94;4991169;28;20027;-71
2021/09/28 03:39:42;;;;;;;1.88;0.80;;;;;;;12.54;100.00;99513.63;4995177;28;20026;-72
2021/09/28 03:42:07;;;;;;;4.95;1.10;;;;;;;12.57;100.00;99517.81;4995391;28;20459;-72
2021/09/28 03:44:34;;;;;;;4.05;0.90;;;;;;;12.49;100.00;99510.66;5000058;28;20022;-71
2021/09/28 03:47:00;;;;;;;4.45;1.67;;;;;;;12.54;100.00;99520.94;5017939;28;20073;-71
2021/09/28 03:49:25;;;;;;;4.63;1.05;;;;;;;12.48;100.00;99517.97;5017486;28;20011;-73
2021/09/28 03:51:50;;;;;;;5.40;1.17;;;;;;;12.45;100.00;99526.53;5018230;28;20114;-72
2021/09/28 03:54:15;;;;;;;5.13;1.08;;;;;;;12.36;100.00;99522.28;5012224;28;20026;-73
2021/09/28 03:56:41;;;;;;;7.35;1.27;;;;;;;12.29;100.00;99521.41;5009963;28;20014;-74
2021/09/28 03:59:06;;;;;;;2.42;1.05;;;;;;;12.16;100.00;99521.31;5016715;28;20049;-74
2021/09/28 04:01:32;;;;;;;2.55;0.90;;;;;;;11.90;100.00;99495.63;5013708;28;20076;-74
2021/09/28 04:03:57;;;;;;;2.40;0.82;;;;;;;11.99;100.00;99507.16;5013285;28;20014;-75
2021/09/28 04:06:22;;;;;;;2.15;1.08;;;;;;;11.81;100.00;99486.72;5016078;28;20014;-74
2021/09/28 04:08:47;;;;;;;3.17;1.30;;;;;;;12.06;100.00;99524.34;5014050;28;20033;-73
2021/09/28 04:11:13;;;;;;;6.28;1.48;;;;;;;11.87;100.00;99503.28;5015738;28;20022;-74
2021/09/28 04:13:41;;;;;;;5.13;1.75;;;;;;;11.92;100.00;99525.22;5016492;28;20046;-76
2021/09/28 04:16:08;;;;;;;8.25;1.75;;;;;;;11.79;100.00;99525.94;5014502;28;20053;-72
2021/09/28 04:18:33;;;;;;;4.90;1.77;;;;;;;11.70;100.00;99522.50;5009378;28;20042;-73
2021/09/28 04:20:59;;;;;;;8.68;2.13;;;;;;;11.72;100.00;99535.88;5009843;28;20030;-73
2021/09/28 04:23:24;;;;;;;8.02;2.17;;;;;;;11.67;100.00;99543.75;5012993;28;20027;-74
2021/09/28 04:25:50;;;;;;;3.17;1.95;;;;;;;11.52;100.00;99522.09;5003559;28;20035;-73
2021/09/28 04:28:16;;;;;;;7.72;1.90;;;;;;;11.51;100.00;99529.38;5014155;28;20022;-72
2021/09/28 04:30:41;;;;;;;4.32;2.17;;;;;;;11.44;100.00;99527.63;5013869;28;20027;-73
2021/09/28 04:33:07;;;;;;;5.90;2.20;;;;;;;11.25;100.00;99508.25;5010544;28;20044;-67
2021/09/28 04:35:33;;;;;;;6.75;2.13;;;;;;;11.35;100.00;99532.34;5000778;28;20076;-69
2021/09/28 04:37:58;;;;;;;6.82;2.33;;;;;;;11.13;100.00;99518.75;5014865;28;20469;-72
2021/09/28 04:40:24;;;;;;;7.70;3.03;;;;;;;11.24;100.00;99538.22;5001015;28;20050;-68
2021/09/28 04:42:49;;;;;;;7.40;3.17;;;;;;;11.22;100.00;99541.13;5002310;28;20057;-74
2021/09/28 04:45:15;;;;;;;5.25;3.28;;;;;;;11.12;100.00;99546.00;5000093;28;22355;-74
2021/09/28 04:47:40;;;;;;;6.38;3.15;;;;;;;11.03;100.00;99539.00;4997964;28;20117;-74
2021/09/28 04:50:07;;;;;;;6.25;3.40;;;;;;;10.87;100.00;99521.94;4982951;28;20131;-68
2021/09/28 04:52:33;;;;;;;5.68;3.38;;;;;;;10.94;100.00;99544.53;5000942;28;20038;-74
2021/09/28 04:54:58;;;;;;;10.00;4.15;;;;;;;10.93;100.00;99547.44;5000124;28;20027;-74
2021/09/28 04:57:24;;;;;;;6.00;3.42;;;;;;;10.82;100.00;99534.34;4999155;28;20042;-73
2021/09/28 04:59:49;;;;;;;8.20;3.35;;;;;;;10.84;100.00;99543.13;4994187;28;20022;-72
2021/09/28 05:02:15;;;;;;;6.32;3.38;;;;;;;10.78;100.00;99543.88;4994498;28;20027;-67
2021/09/28 05:04:41;;;;;;;4.85;3.10;;;;;;;10.66;100.00;99528.13;4987527;28;20022;-68
2021/09/28 05:07:06;;;;;;;8.68;3.75;;;;;;;10.63;100.00;99530.34;5000162;28;20090;-68
2021/09/28 05:09:32;;;;;;;7.18;3.75;;;;;;;10.65;100.00;99553.47;5004044;28;20622;-70
2021/09/28 05:11:59;;;;;;;6.68;3.90;;;;;;;10.61;100.00;99554.88;5002440;28;20030;-70
2021/09/28 05:14:28;;;;;;;11.48;4.05;;;;;;;10.58;100.00;99549.81;4999501;28;20050;-70
2021/09/28 05:16:53;;;;;;;6.28;4.20;;;;;;;10.50;100.00;99536.38;4993477;28;20026;-71
2021/09/28 05:19:18;;;;;;;5.40;3.75;;;;;;;10.44;100.00;99537.97;4989972;28;20026;-70
2021/09/28 05:21:44;;;;;;;7.72;4.25;;;;;;;10.62;100.00;99555.72;4983355;28;20436;-71
2021/09/28 05:24:09;;;;;;;7.70;4.50;;;;;;;10.63;100.00;99514.94;4988080;28;20118;-71
2021/09/28 05:26:35;;;;;;;11.57;4.88;;;;;;;10.84;100.00;99530.41;4983771;28;20110;-72
2021/09/28 05:29:01;;;;;;;9.73;4.00;;;;;;;10.85;100.00;99532.13;4987336;28;20122;-70
2021/09/28 05:31:26;;;;;;;6.85;3.65;;;;;;;11.08;100.00;99556.38;4986108;28;20381;-70
2021/09/28 05:33:52;;;;;;;5.90;3.65;;;;;;;11.07;100.00;99551.16;4988050;28;20061;-71
2021/09/28 05:36:17;;;;;;;10.00;4.38;;;;;;;11.12;100.00;99544.13;4982878;28;20113;-73
2021/09/28 05:38:42;;;;;;;10.52;5.38;;;;;;;11.32;100.00;99573.34;4985107;28;20030;-72
2021/09/28 05:41:09;;;;;;;11.02;5.22;;;;;;;11.41;100.00;99573.03;4994489;28;20034;-72
2021/09/28 05:43:35;;;;;;;7.95;4.47;;;;;;;11.41;100.00;99575.75;4999351;28;20116;-72
2021/09/28 05:46:00;;;;;;;11.23;5.25;;;;;;;11.43;100.00;99582.88;4992756;28;20038;-70
2021/09/28 05:48:26;;;;;;;10.75;4.78;;;;;;;11.33;100.00;99578.56;4984875;28;20425;-70
2021/09/28 05:50:51;;;;;;;10.32;5.00;;;;;;;11.38;100.00;99576.13;4998506;28;20042;-72
2021/09/28 05:53:17;;;;;;;11.52;5.07;;;;;;;11.18;100.00;99548.78;4988550;28;20109;-72
2021/09/28 05:55:42;;;;;;;8.65;4.38;;;;;;;11.47;100.00;99582.28;4991678;28;20034;-75
2021/09/28 05:58:08;;;;;;;12.15;4.35;;;;;;;11.30;100.00;99576.25;4995037;28;20026;-69
2021/09/28 06:00:33;;;;;;;9.60;4.13;;;;;;;11.30;100.00;99561.88;4986318;28;20113;-69
2021/09/28 06:02:58;;;;;;;9.45;4.18;;;;;;;11.50;100.00;99592.75;4987446;28;20038;-70
2021/09/28 06:05:24;;;;;;;11.05;4.28;;;;;;;11.61;100.00;99588.72;4996692;28;20030;-72
2021/09/28 06:07:50;;;;;;;10.30;4.53;;;;;;;11.68;100.00;99591.47;4995576;28;20035;-72
2021/09/28 06:10:15;;;;;;;9.75;4.80;;;;;;;11.72;100.00;99569.22;4995690;28;20026;-75
2021/09/28 06:12:41;;;;;;;5.32;3.88;;;;;;;12.01;100.00;99583.75;4995347;28;20361;-73
2021/09/28 06:15:07;;;;;;;7.25;4.13;;;;;;;12.06;100.00;99556.88;4992767;28;20105;-72
2021/09/28 06:17:33;;;;;;;10.63;4.32;;;;;;;12.43;100.00;99591.00;4976167;28;20031;-70
2021/09/28 06:19:58;;;;;;;7.22;4.18;;;;;;;12.38;100.00;99562.78;4976899;28;20389;-71
2021/09/28 06:22:25;;;;;;;7.65;3.97;;;;;;;12.68;100.00;99596.00;4981789;28;20041;-70
2021/09/28 06:24:55;;;;;;;13.13;4.40;;;;;;;12.85;100.00;99583.81;4984646;28;20022;-73
2021/09/28 06:27:21;;;;;;;10.02;4.80;;;;;;;12.82;98.16;99575.22;4986853;28;20268;-72
2021/09/28 06:29:46;;;;;;;10.50;4.35;;;;;;;12.88;98.57;99569.00;4990279;28;20034;-73
2021/09/28 06:32:12;;;;;;;9.50;4.80;;;;;;;12.76;98.58;99570.56;4994257;28;20116;-73
2021/09/28 06:34:37;;;;;;;9.05;4.95;;;;;;;12.74;98.37;99581.66;4989915;28;20031;-72
2021/09/28 06:37:03;;;;;;;14.13;5.05;;;;;;;12.82;98.18;99592.34;4984571;28;20023;-73
2021/09/28 06:39:28;;;;;;;8.85;4.00;;;;;;;12.76;97.12;99565.13;4983068;28;20432;-72
2021/09/28 06:41:53;;;;;;;10.77;4.88;;;;;;;12.88;96.83;99569.81;4984288;28;20633;-73
2021/09/28 06:44:18;;;;;;;9.52;4.18;;;;;;;13.13;96.28;99588.38;4981951;28;20035;-74
2021/09/28 06:46:44;;;;;;;8.02;4.50;;;;;;;13.15;95.07;99569.97;4978872;28;20392;-73
2021/09/28 06:49:09;;;;;;;11.85;4.68;;;;;;;13.12;94.53;99582.06;4978535;28;20034;-72
2021/09/28 06:51:35;;;;;;;11.73;4.22;;;;;;;13.09;95.38;99574.34;4993531;28;20022;-72
2021/09/28 06:54:00;;;;;;;10.85;4.28;;;;;;;13.28;94.75;99586.41;4984723;28;20042;-72
2021/09/28 06:56:26;;;;;;;11.30;4.40;;;;;;;13.29;94.78;99587.22;4979455;28;20057;-72
2021/09/28 06:58:52;;;;;;;8.50;5.13;;;;;;;13.21;94.75;99569.19;4982907;28;20027;-73
2021/09/28 07:01:18;;;;;;;5.72;4.53;;;;;;;13.29;95.29;99588.06;4982813;28;20058;-72
2021/09/28 07:03:43;;;;;;;9.65;4.95;;;;;;;13.41;93.87;99584.75;4988146;28;20133;-73
2021/09/28 07:06:08;;;;;;;10.35;4.75;;;;;;;13.58;92.45;99594.25;4988724;28;20030;-71
2021/09/28 07:08:34;;;;;;;6.70;4.82;;;;;;;13.61;91.01;99579.41;4982755;28;20031;-71
2021/09/28 07:10:59;;;;;;;9.27;5.00;;;;;;;13.80;90.49;99587.59;4985403;28;20022;-72
2021/09/28 07:13:24;;;;;;;9.48;4.88;;;;;;;13.72;88.14;99565.22;4982937;28;20512;-72
2021/09/28 07:15:50;;;;;;;9.57;5.10;;;;;;;13.90;88.10;99583.66;4979440;28;20102;-71
2021/09/28 07:18:15;;;;;;;15.77;6.10;;;;;;;13.78;89.11;99567.97;4982691;28;20026;-72
2021/09/28 07:20:41;;;;;;;10.50;5.30;;;;;;;13.88;87.66;99572.16;4982419;28;20101;-73
2021/09/28 07:23:06;;;;;;;7.18;4.78;;;;;;;14.01;87.98;99580.34;4983016;28;20026;-70
2021/09/28 07:25:32;;;;;;;12.27;5.32;;;;;;;14.31;86.23;99569.91;4982001;28;20173;-73
2021/09/28 07:27:58;;;;;;;10.73;4.82;;;;;;;14.64;84.54;99579.97;4981455;28;22443;-69
2021/09/28 07:30:25;;;;;;;9.13;4.60;;;;;;;14.76;81.71;99580.19;4979327;28;20055;-73
2021/09/28 07:32:50;;;;;;;10.40;4.10;;;;;;;14.62;80.52;99555.69;4986510;28;20088;-73
2021/09/28 07:35:15;;;;;;;6.57;3.75;;;;;;;14.74;79.38;99585.84;4994307;28;20034;-72
2021/09/28 07:37:41;;;;;;;8.05;4.00;;;;;;;14.60;79.07;99571.41;4985928;28;20039;-71
2021/09/28 07:40:06;;;;;;;7.88;4.03;;;;;;;14.77;78.32;99588.13;4981655;28;20090;-72
2021/09/28 07:42:32;;;;;;;6.55;3.42;;;;;;;15.07;78.51;99580.34;4982168;28;20026;-74
2021/09/28 07:44:58;;;;;;;7.05;3.03;;;;;;;15.48;75.50;99583.75;4985089;28;20034;-73
2021/09/28 07:47:25;;;;;;;6.53;3.58;;;;;;;15.62;75.49;99581.84;4984333;28;20033;-74
2021/09/28 07:49:51;;;;;;;10.52;4.72;;;;;;;15.37;76.80;99590.72;4983556;28;20058;-73
2021/09/28 07:52:16;;;;;;;12.30;4.90;;;;;;;15.34;75.96;99585.72;4983578;28;20066;-73
2021/09/28 07:54:41;;;;;;;9.52;4.38;;;;;;;15.41;75.76;99589.25;4996011;28;20555;-73
2021/09/28 07:57:08;;;;;;;9.38;5.40;;;;;;;15.48;76.66;99587.34;4984239;28;20034;-72
2021/09/28 07:59:34;;;;;;;11.55;5.13;;;;;;;15.86;74.64;99578.38;4981225;28;20022;-71
2021/09/28 08:02:00;;;;;;;9.77;6.00;;;;;;;16.84;71.34;99583.31;4977731;28;20030;-69
2021/09/28 08:04:25;;;;;;;8.75;4.93;;;;;;;19.61;60.08;99571.31;4989625;28;20453;-71
2021/09/28 08:06:52;;;;;;;9.32;4.85;;;;;;;21.59;52.78;99558.38;4988568;28;20041;-69
2021/09/28 08:09:18;;;;;;;8.40;4.38;;;;;;;22.80;49.35;99575.53;4988769;28;20022;-68
2021/09/28 08:11:43;;;;;;;7.35;4.43;;;;;;;23.84;46.75;99568.38;4992904;28;20056;-71
2021/09/28 08:14:09;;;;;;;11.52;4.38;;;;;;;24.23;45.30;99571.53;4988836;28;20080;-70
2021/09/28 08:16:35;;;;;;;5.38;3.38;;;;;;;24.75;43.97;99571.56;4992530;28;20034;-70
2021/09/28 08:19:01;;;;;;;8.90;3.85;;;;;;;22.97;45.54;99570.72;4991764;28;20022;-73
2021/09/28 08:21:27;;;;;;;8.32;4.38;;;;;;;22.15;49.51;99572.75;4983257;28;20380;-68
2021/09/28 08:23:52;;;;;;;5.50;3.88;;;;;;;22.52;48.71;99577.53;4985540;28;20026;-75
2021/09/28 08:29:11;;;;;;;6.25;3.40;;;;;;;23.72;47.25;99570.56;4982720;28;20027;-72
2021/09/28 08:31:44;;;;;;;8.45;5.03;;;;;;;25.16;43.35;99563.22;4976402;28;20026;-72
2021/09/28 08:34:10;;;;;;;7.22;4.50;;;;;;;24.88;43.11;99560.72;4993387;28;20030;-70
2021/09/28 08:36:36;;;;;;;8.20;4.85;;;;;;;25.49;42.84;99559.78;4990547;28;20030;-72
2021/09/28 08:39:04;;;;;;;9.30;4.03;;;;;;;25.91;41.72;99547.41;4977491;28;20027;-70
2021/09/28 08:41:29;;;;;;;10.15;4.55;;;;;;;25.77;42.77;99540.78;4973893;28;20027;-70
2021/09/28 08:43:54;;;;;;;6.70;4.15;;;;;;;25.37;43.35;99548.19;4977519;28;20030;-73
2021/09/28 08:46:20;;;;;;;11.77;4.50;;;;;;;24.32;45.21;99557.16;4972444;28;20466;-66
2021/09/28 08:48:47;;;;;;;8.68;4.95;;;;;;;24.83;43.99;99560.75;4979637;28;20113;-67
2021/09/28 08:51:14;;;;;;;9.77;4.75;;;;;;;26.70;40.62;99527.09;4992603;28;20076;-67
2021/09/28 08:53:41;;;;;;;11.30;5.03;;;;;;;26.67;39.24;99554.34;4985209;28;20081;-67
2021/09/28 08:56:14;;;;;;;8.27;4.95;;;;;;;27.57;38.36;99551.19;4978567;28;20022;-65
2021/09/28 08:59:02;;;;;;;10.00;4.80;;;;;;;28.19;37.50;99543.63;4978484;28;20034;-65
2021/09/28 09:01:30;;;;;;;8.13;4.60;;;;;;;27.23;38.75;99555.75;4980363;28;20066;-66
2021/09/28 09:04:01;;;;;;;;;;;;;;;27.50;37.76;99546.78;4979745;28;20022;-69
2021/09/28 09:06:34;;;;;;;6.50;3.90;;;;;;;29.58;32.90;99522.44;4980662;28;19941;-73
2021/09/28 09:09:02;;;;;;;8.27;5.30;;;;;;;29.50;34.11;99540.72;4980331;28;20038;-72
2021/09/28 09:11:34;;;;;;;9.63;4.47;;;;;;;28.91;33.50;99536.88;4986382;28;20080;-77
2021/09/28 09:14:11;;;;;;;8.73;3.90;;;;;;;29.16;32.97;99542.00;4991904;28;20027;-76
2021/09/28 09:16:37;;;;;;;9.50;4.07;;;;;;;28.53;33.36;99532.28;4990992;28;20391;-74
2021/09/28 09:19:16;;;;;;;7.95;4.53;;;;;;;29.15;31.57;99533.94;4992518;28;20145;-74
2021/09/28 09:21:50;;;;;;;9.60;4.40;;;;;;;29.49;31.58;99539.91;4991501;28;20022;-74
2021/09/28 09:24:49;;;;;;;7.85;4.72;;;;;;;29.62;31.80;99534.66;4986115;28;20381;-74
2021/09/28 09:27:19;;;;;;;7.20;5.22;;;;;;;29.66;31.78;99503.06;4985490;28;20026;-76
2021/09/28 09:29:44;;;;;;;7.80;4.82;;;;;;;29.21;32.55;99532.69;4988966;28;20053;-74
2021/09/28 09:32:11;;;;;;;8.52;4.22;;;;;;;28.90;32.52;99519.34;4991291;28;20062;-74
2021/09/28 09:34:36;;;;;;;8.95;5.00;;;;;;;28.56;32.35;99525.28;4992791;28;20353;-74
2021/09/28 09:37:08;;;;;;;7.05;4.90;;;;;;;30.04;31.97;99527.03;4992309;28;20049;-75
2021/09/28 09:39:54;;;;;;;8.02;4.32;;;;;;;30.58;29.50;99527.97;4987213;28;20080;-76
2021/09/28 09:42:20;;;;;;;7.38;4.30;;;;;;;30.57;29.70;99517.94;4992474;28;20408;-69
2021/09/28 09:44:46;;;;;;;9.93;3.83;;;;;;;30.64;29.46;99523.91;4992079;28;20034;-70
2021/09/28 09:47:29;;;;;;;4.65;3.35;;;;;;;30.72;29.42;99516.72;4976176;28;20031;-69
2021/09/28 09:50:12;;;;;;;5.68;3.03;;;;;;;31.41;28.39;99519.03;4972835;28;20473;-69
2021/09/28 09:52:55;;;;;;;4.78;2.70;;;;;;;31.92;26.93;99516.66;4982036;28;20042;-71
2021/09/28 09:55:31;;;;;;;4.35;2.70;;;;;;;32.74;26.15;99512.81;4974499;28;20030;-69
2021/09/28 09:57:57;;;;;;;5.00;2.80;;;;;;;33.42;26.44;99502.84;4982642;28;20050;-69
2021/09/28 10:00:23;;;;;;;7.22;2.97;;;;;;;33.87;25.30;99494.63;4979443;28;20080;-70
2021/09/28 10:02:49;;;;;;;5.63;3.45;;;;;;;30.97;28.01;99492.88;4977589;28;20109;-69
2021/09/28 10:05:15;;;;;;;5.53;3.20;;;;;;;31.16;29.05;99493.44;4991553;28;20561;-69
2021/09/28 10:07:41;;;;;;;7.85;3.20;;;;;;;32.07;28.66;99497.44;4987143;28;20037;-67
2021/09/28 10:10:08;;;;;;;7.00;2.63;;;;;;;32.31;27.81;99491.31;4986538;28;20366;-68
2021/09/28 10:12:38;;;;;;;5.65;3.08;;;;;;;32.33;27.33;99490.97;4981544;28;20050;-68
2021/09/28 10:15:11;;;;;;;4.47;2.53;;;;;;;33.29;26.59;99483.09;4988060;28;20030;-68
2021/09/28 10:17:41;;;;;;;5.05;3.10;;;;;;;33.42;25.88;99486.00;4992021;28;20030;-68
2021/09/28 10:20:20;;;;;;;4.10;2.20;;;;;;;33.56;25.60;99478.19;4982279;28;20030;-68
2021/09/28 10:22:53;;;;;;;5.95;2.38;;;;;;;30.90;27.85;99481.34;4983141;28;20039;-68
2021/09/28 10:25:18;;;;;;;4.93;2.58;;;;;;;28.91;30.20;99482.00;4990745;28;20057;-68
2021/09/28 10:27:44;;;;;;;5.70;2.50;;;;;;;28.29;32.63;99471.13;4988483;28;20058;-69
2021/09/28 10:30:10;;;;;;;5.00;2.67;;;;;;;29.30;31.04;99483.47;4976123;28;20038;-68
2021/09/28 10:32:45;;;;;;;3.75;2.25;;;;;;;29.64;30.86;99471.03;4991901;28;20113;-69
2021/09/28 10:35:17;;;;;;;6.30;1.90;;;;;;;30.59;29.83;99476.53;4977044;28;20034;-69
2021/09/28 10:37:42;;;;;;;4.07;1.90;;;;;;;28.29;32.56;99473.06;4990651;28;20537;-69
2021/09/28 10:40:14;;;;;;;4.17;1.40;;;;;;;26.42;35.55;99474.88;4976656;28;20115;-69
2021/09/28 10:43:05;;;;;;;5.13;1.52;;;;;;;24.16;37.92;99474.19;4972553;28;20280;-69
2021/09/28 10:45:35;;;;;;;5.00;1.80;;;;;;;23.43;39.38;99479.00;4972887;28;20580;-69
2021/09/28 10:48:18;;;;;;;3.83;1.15;;;;;;;23.66;39.56;99464.72;4988921;28;20030;-70
2021/09/28 10:50:45;;;;;;;6.22;1.70;;;;;;;24.03;39.73;99460.91;4978594;28;20033;-69
2021/09/28 10:53:20;;;;;;;3.63;1.88;;;;;;;26.00;35.81;99456.94;4977552;28;20019;-69
2021/09/28 10:55:57;;;;;;;4.35;1.70;;;;;;;28.28;32.59;99446.38;4971876;28;20038;-68
2021/09/28 10:58:24;;;;;;;4.40;1.58;;;;;;;28.42;32.83;99452.81;4971972;28;20058;-69
2021/09/28 11:00:49;;;;;;;5.25;1.55;;;;;;;28.88;31.53;99440.00;4972359;28;20135;-69
2021/09/28 11:03:16;;;;;;;4.20;1.53;;;;;;;30.01;29.86;99430.81;4989569;28;20185;-70
2021/09/28 11:05:43;;;;;;;4.85;1.40;;;;;;;29.30;30.77;99433.31;4975090;28;20072;-69
2021/09/28 11:08:12;;;;;;;6.53;2.13;;;;;;;29.47;29.45;99439.06;4978592;28;20034;-69
2021/09/28 11:10:38;;;;;;;4.90;1.50;;;;;;;29.75;29.05;99410.28;4972695;28;20113;-69
2021/09/28 11:13:07;;;;;;;6.22;1.50;;;;;;;29.46;29.78;99420.66;4971780;28;20161;-68
2021/09/28 11:15:33;;;;;;;6.97;1.52;;;;;;;31.22;28.14;99427.84;4972332;28;20093;-69
2021/09/28 11:18:25;;;;;;;4.05;1.25;;;;;;;30.86;27.61;99407.69;4977178;28;20030;-69
2021/09/28 11:20:51;;;;;;;3.58;1.20;;;;;;;32.94;25.96;99396.34;4978901;28;20496;-68
2021/09/28 11:23:16;;;;;;;4.85;1.17;;;;;;;31.86;27.30;99407.69;4990730;28;20056;-69
2021/09/28 11:25:53;;;;;;;5.35;1.75;;;;;;;30.41;28.21;99413.38;4990241;28;20076;-69
2021/09/28 11:28:21;;;;;;;6.18;1.20;;;;;;;29.17;29.56;99407.09;4986443;28;20068;-70
2021/09/28 11:30:52;;;;;;;3.20;1.00;;;;;;;28.82;30.73;99406.69;4982442;28;20050;-69